Time;durP1;ratioP1;P1;durP2;ratioP2;P2;SDS_P1;SDS_P2;PMS_P1;PMS_P2;Temp;Humidity;BMP_temperature;BMP_pressure;BME280_temperature;BME280_humidity;BME280_pressure;Samples;Min_cycle;Max_cycle;Signal;HPM_P1;HPM_P2
2023/01/02 00:02:10;;;;;;;;;;;8.10;99.90;;;;;;4832332;29;19928;-71
2023/01/02 00:04:36;;;;;;;;;;;8.20;99.90;;;;;;4829079;29;19935;-71
2023/01/02 00:07:01;;;;;;;;;;;8.20;99.90;;;;;;4849294;29;20656;-71
2023/01/02 00:09:27;;;;;;;;;;;8.20;99.90;;;;;;4848018;29;19976;-71
2023/01/02 00:11:52;;;;;;;;;;;8.20;99.90;;;;;;4845977;29;19933;-71
2023/01/02 00:14:18;;;;;;;;;;;8.20;99.90;;;;;;4851412;29;19935;-71
2023/01/02 00:16:44;;;;;;;;;;;8.20;99.90;;;;;;4846062;29;19931;-71
2023/01/02 00:19:09;;;;;;;;;;;8.20;99.90;;;;;;4842975;29;19924;-71
2023/01/02 00:21:35;;;;;;;;;;;8.20;99.90;;;;;;4838008;29;19933;-71
2023/01/02 00:24:00;;;;;;;;;;;8.20;99.90;;;;;;4845275;29;19925;-71
2023/01/02 00:26:26;;;;;;;;;;;8.20;99.90;;;;;;4822186;29;20472;-71
2023/01/02 00:28:51;;;;;;;;;;;8.20;99.90;;;;;;4840108;29;19963;-71
2023/01/02 00:31:17;;;;;;;;;;;8.20;99.90;;;;;;4840861;29;19996;-71
2023/01/02 00:33:43;;;;;;;;;;;8.30;99.90;;;;;;4836272;29;19928;-71
2023/01/02 00:36:10;;;;;;;;;;;8.30;99.90;;;;;;4836003;29;19955;-71
2023/01/02 00:38:36;;;;;;;;;;;8.30;99.90;;;;;;4829623;29;20231;-71
2023/01/02 00:41:01;;;;;;;;;;;8.40;99.90;;;;;;4846355;29;20049;-71
2023/01/02 00:43:27;;;;;;;;;;;8.50;99.90;;;;;;4832592;29;19928;-71
2023/01/02 00:45:53;;;;;;;;;;;8.60;99.90;;;;;;4844015;29;20381;-71
2023/01/02 00:48:18;;;;;;;;;;;8.60;99.90;;;;;;4842890;29;20135;-71
2023/01/02 00:50:44;;;;;;;;;;;8.80;99.90;;;;;;4836044;29;20011;-71
2023/01/02 00:53:09;;;;;;;;;;;8.90;99.90;;;;;;4842788;29;19924;-71
2023/01/02 00:55:35;;;;;;;;;;;9.00;99.90;;;;;;4842019;29;19932;-71
2023/01/02 00:58:01;;;;;;;;;;;9.00;99.90;;;;;;4852708;29;19932;-71
2023/01/02 01:00:26;;;;;;;;;;;9.10;99.90;;;;;;4840640;29;19924;-71
2023/01/02 01:02:56;;;;;;;;;;;9.20;99.90;;;;;;4838901;29;19924;-71
2023/01/02 01:05:22;;;;;;;;;;;9.20;99.90;;;;;;4824323;29;19938;-71
2023/01/02 01:07:47;;;;;;;;;;;9.20;99.90;;;;;;4844151;29;19955;-71
2023/01/02 01:10:13;;;;;;;;;;;9.30;99.90;;;;;;4846822;29;20405;-71
2023/01/02 01:12:39;;;;;;;;;;;9.30;99.90;;;;;;4848553;29;19927;-71
2023/01/02 01:15:05;;;;;;;;;;;9.40;99.90;;;;;;4846745;29;20439;-71
2023/01/02 01:17:30;;;;;;;;;;;9.30;99.90;;;;;;4842885;29;19928;-71
2023/01/02 01:19:56;;;;;;;;;;;9.30;99.90;;;;;;4825876;29;20301;-71
2023/01/02 01:22:22;;;;;;;;;;;9.40;99.90;;;;;;4827205;29;19931;-71
2023/01/02 01:24:47;;;;;;;;;;;9.40;99.90;;;;;;4837247;29;19924;-72
2023/01/02 01:27:13;;;;;;;;;;;9.40;99.90;;;;;;4843146;29;20035;-72
2023/01/02 01:29:38;;;;;;;;;;;9.40;99.90;;;;;;4841138;29;19981;-72
2023/01/02 01:32:04;;;;;;;;;;;9.40;99.90;;;;;;4841742;29;20849;-72
2023/01/02 01:34:30;;;;;;;;;;;9.40;99.90;;;;;;4844452;29;19924;-72
2023/01/02 01:36:55;;;;;;;;;;;9.40;99.90;;;;;;4829111;29;20437;-72
2023/01/02 01:39:21;;;;;;;;;;;9.40;99.90;;;;;;4841458;29;19954;-72
2023/01/02 01:41:46;;;;;;;;;;;9.40;99.90;;;;;;4840313;29;19924;-72
2023/01/02 01:44:31;;;;;;;;;;;9.40;99.90;;;;;;4843138;29;20317;-72
2023/01/02 01:46:56;;;;;;;;;;;9.40;99.90;;;;;;4840508;29;20436;-72
2023/01/02 01:49:27;;;;;;;;;;;9.40;99.90;;;;;;4827956;29;19980;-72
2023/01/02 01:51:55;;;;;;;;;;;9.40;99.90;;;;;;4844969;29;19928;-72
2023/01/02 01:54:23;;;;;;;;;;;9.40;99.90;;;;;;4826061;29;19924;-72
2023/01/02 01:56:55;;;;;;;;;;;9.40;99.90;;;;;;4839166;29;19928;-72
2023/01/02 01:59:21;;;;;;;;;;;9.40;99.90;;;;;;4837414;29;20014;-72
2023/01/02 02:01:48;;;;;;;;;;;9.40;99.90;;;;;;4832673;29;20019;-72
2023/01/02 02:04:13;;;;;;;;;;;9.50;99.90;;;;;;4841265;29;20475;-72
2023/01/02 02:06:39;;;;;;;;;;;9.50;99.90;;;;;;4844922;29;20014;-72
2023/01/02 02:09:25;;;;;;;;;;;9.50;99.90;;;;;;4842639;29;19931;-72
2023/01/02 02:11:53;;;;;;;;;;;9.50;99.90;;;;;;4845122;29;20000;-72
2023/01/02 02:14:18;;;;;;;;;;;9.50;99.90;;;;;;4850954;29;19928;-72
2023/01/02 02:16:48;;;;;;;;;;;9.60;99.90;;;;;;4810371;29;20400;-72
2023/01/02 02:19:29;;;;;;;;;;;9.60;99.90;;;;;;4848498;29;20377;-72
2023/01/02 02:21:58;;;;;;;;;;;9.60;99.90;;;;;;4855719;29;19928;-72
2023/01/02 02:24:29;;;;;;;;;;;9.60;99.90;;;;;;4839375;29;19924;-72
2023/01/02 02:27:00;;;;;;;;;;;9.70;99.90;;;;;;4831967;29;19969;-72
2023/01/02 02:29:44;;;;;;;;;;;9.70;99.90;;;;;;4833249;29;19924;-72
2023/01/02 02:32:19;;;;;;;;;;;9.70;99.90;;;;;;4834773;29;19936;-72
2023/01/02 02:35:03;;;;;;;;;;;9.80;99.90;;;;;;4843790;29;19928;-72
2023/01/02 02:37:47;;;;;;;;;;;9.80;99.90;;;;;;4838010;29;19935;-72
2023/01/02 02:40:13;;;;;;;;;;;9.80;99.90;;;;;;4845390;29;20336;-72
2023/01/02 02:42:45;;;;;;;;;;;9.80;99.90;;;;;;4840338;29;20065;-72
2023/01/02 02:45:13;;;;;;;;;;;9.80;99.90;;;;;;4825274;29;19978;-72
2023/01/02 02:48:01;;;;;;;;;;;9.80;99.90;;;;;;4840010;29;20000;-72
2023/01/02 02:50:32;;;;;;;;;;;9.80;99.90;;;;;;4844995;29;19932;-72
2023/01/02 02:52:58;;;;;;;;;;;9.80;99.90;;;;;;4841307;29;19928;-72
2023/01/02 02:55:29;;;;;;;;;;;9.80;99.90;;;;;;4841225;29;20070;-72
2023/01/02 02:57:55;;;;;;;;;;;9.80;99.90;;;;;;4834174;29;19924;-72
2023/01/02 03:00:22;;;;;;;;;;;9.80;99.90;;;;;;4837533;29;20385;-72
2023/01/02 03:02:48;;;;;;;;;;;9.80;99.90;;;;;;4842913;29;20387;-72
2023/01/02 03:05:18;;;;;;;;;;;9.80;99.90;;;;;;4841092;29;19924;-72
2023/01/02 03:07:52;;;;;;;;;;;9.80;99.90;;;;;;4845623;29;20023;-72
2023/01/02 03:10:37;;;;;;;;;;;9.80;99.90;;;;;;4843135;29;20039;-72
2023/01/02 03:13:13;;;;;;;;;;;9.80;99.90;;;;;;4841205;29;19928;-72
2023/01/02 03:15:56;;;;;;;;;;;9.80;99.90;;;;;;4844793;29;20067;-72
2023/01/02 03:18:30;;;;;;;;;;;9.80;99.90;;;;;;4865909;29;20007;-72
2023/01/02 03:21:01;;;;;;;;;;;9.80;99.90;;;;;;4846385;29;19924;-72
2023/01/02 03:23:29;;;;;;;;;;;9.90;99.90;;;;;;4829648;29;20277;-72
2023/01/02 03:25:56;;;;;;;;;;;9.90;99.90;;;;;;4842732;29;19924;-72
2023/01/02 03:28:25;;;;;;;;;;;10.00;99.90;;;;;;4845063;29;20007;-72
2023/01/02 03:30:53;;;;;;;;;;;10.00;99.90;;;;;;4841348;29;19929;-72
2023/01/02 03:33:22;;;;;;;;;;;10.10;99.90;;;;;;4849237;29;19932;-72
2023/01/02 03:35:56;;;;;;;;;;;10.10;99.90;;;;;;4859629;29;19939;-72
2023/01/02 03:38:42;;;;;;;;;;;10.10;99.90;;;;;;4853860;29;19939;-72
2023/01/02 03:41:10;;;;;;;;;;;10.10;99.90;;;;;;4837342;29;19979;-72
2023/01/02 03:43:37;;;;;;;;;;;10.10;99.90;;;;;;4844395;29;19932;-72
2023/01/02 03:46:03;;;;;;;;;;;10.20;99.90;;;;;;4832810;29;20385;-72
2023/01/02 03:48:29;;;;;;;;;;;10.20;99.90;;;;;;4827180;29;19935;-72
2023/01/02 03:50:55;;;;;;;;;;;10.20;99.90;;;;;;4827212;29;19962;-72
2023/01/02 03:53:21;;;;;;;;;;;10.20;99.90;;;;;;4845166;29;19924;-72
2023/01/02 03:55:57;;;;;;;;;;;10.20;99.90;;;;;;4844547;29;19924;-72
2023/01/02 03:58:35;;;;;;;;;;;10.20;99.90;;;;;;4851588;29;20196;-72
2023/01/02 04:01:05;;;;;;;;;;;10.20;99.90;;;;;;4833637;29;20266;-72
2023/01/02 04:03:39;;;;;;;;;;;10.20;99.90;;;;;;4843282;29;19925;-72
2023/01/02 04:06:12;;;;;;;;;;;10.20;99.90;;;;;;4853060;29;20259;-72
2023/01/02 04:08:48;;;;;;;;;;;10.20;99.90;;;;;;4843851;29;19931;-72
2023/01/02 04:11:15;;;;;;;;;;;10.20;99.90;;;;;;4833112;29;19994;-72
2023/01/02 04:13:43;;;;;;;;;;;10.20;99.90;;;;;;4829383;29;19924;-72
2023/01/02 04:16:11;;;;;;;;;;;10.20;99.90;;;;;;4847431;29;20361;-72
2023/01/02 04:18:39;;;;;;;;;;;10.20;99.90;;;;;;4845017;29;20443;-72
2023/01/02 04:21:10;;;;;;;;;;;10.20;99.90;;;;;;4847037;29;19941;-72
2023/01/02 04:23:38;;;;;;;;;;;10.20;99.90;;;;;;4844236;29;20018;-72
2023/01/02 04:26:09;;;;;;;;;;;10.20;99.90;;;;;;4843436;29;19924;-71
2023/01/02 04:28:34;;;;;;;;;;;10.10;99.90;;;;;;4843578;29;19974;-71
2023/01/02 04:31:05;;;;;;;;;;;10.10;99.90;;;;;;4853080;29;19936;-72
2023/01/02 04:33:33;;;;;;;;;;;10.10;99.90;;;;;;4842131;29;20246;-72
2023/01/02 04:36:06;;;;;;;;;;;10.10;99.90;;;;;;4839667;29;19935;-71
2023/01/02 04:38:31;;;;;;;;;;;10.10;99.90;;;;;;4845258;29;20360;-71
2023/01/02 04:40:57;;;;;;;;;;;10.00;99.90;;;;;;4842629;29;19995;-71
2023/01/02 04:43:22;;;;;;;;;;;10.00;99.90;;;;;;4851032;29;19923;-71
2023/01/02 04:45:48;;;;;;;;;;;10.00;99.90;;;;;;4842984;29;20219;-71
2023/01/02 04:48:14;;;;;;;;;;;10.00;99.90;;;;;;4846052;29;19924;-71
2023/01/02 04:50:40;;;;;;;;;;;9.90;99.90;;;;;;4827903;29;19929;-71
2023/01/02 04:53:05;;;;;;;;;;;9.90;99.90;;;;;;4841695;29;19936;-71
2023/01/02 04:55:31;;;;;;;;;;;9.90;99.90;;;;;;4840933;29;20377;-71
2023/01/02 04:57:57;;;;;;;;;;;9.90;99.90;;;;;;4846866;29;19924;-71
2023/01/02 05:00:23;;;;;;;;;;;9.90;99.90;;;;;;4838837;29;20303;-71
2023/01/02 05:02:48;;;;;;;;;;;9.90;99.90;;;;;;4834312;29;19936;-71
2023/01/02 05:05:14;;;;;;;;;;;9.90;99.90;;;;;;4825682;29;20441;-72
2023/01/02 05:07:39;;;;;;;;;;;9.90;99.90;;;;;;4842194;29;19928;-72
2023/01/02 05:10:05;;;;;;;;;;;9.90;99.90;;;;;;4841965;29;19928;-72
2023/01/02 05:12:34;;;;;;;;;;;9.90;99.90;;;;;;4832478;29;19932;-72
2023/01/02 05:15:00;;;;;;;;;;;9.90;99.90;;;;;;4838625;29;19924;-72
2023/01/02 05:17:26;;;;;;;;;;;9.90;99.90;;;;;;4846656;29;19932;-72
2023/01/02 05:19:52;;;;;;;;;;;9.90;99.90;;;;;;4832414;29;19931;-72
2023/01/02 05:25:02;;;;;;;;;;;9.80;99.90;;;;;;4840731;29;20020;-72
2023/01/02 05:27:27;;;;;;;;;;;9.80;99.90;;;;;;4833242;29;20449;-72
2023/01/02 05:29:53;;;;;;;;;;;9.80;99.90;;;;;;4856142;29;20273;-72
2023/01/02 05:32:18;;;;;;;;;;;9.80;99.90;;;;;;4844834;29;19933;-72
2023/01/02 05:34:44;;;;;;;;;;;9.70;99.90;;;;;;4828464;29;19924;-72
2023/01/02 05:37:09;;;;;;;;;;;9.70;99.90;;;;;;4826237;29;20011;-72
2023/01/02 05:39:35;;;;;;;;;;;9.70;99.90;;;;;;4832998;29;20339;-72
2023/01/02 05:42:00;;;;;;;;;;;9.70;99.90;;;;;;4839940;29;19924;-72
2023/01/02 05:44:26;;;;;;;;;;;9.70;99.90;;;;;;4826950;29;19924;-72
2023/01/02 05:46:52;;;;;;;;;;;9.70;99.90;;;;;;4827271;29;19931;-72
2023/01/02 05:49:17;;;;;;;;;;;9.70;99.90;;;;;;4848059;29;20014;-72
2023/01/02 05:51:43;;;;;;;;;;;9.70;99.90;;;;;;4838999;29;19935;-72
2023/01/02 05:54:08;;;;;;;;;;;9.70;99.90;;;;;;4840554;29;20614;-72
2023/01/02 05:56:34;;;;;;;;;;;9.60;99.90;;;;;;4823029;29;19935;-72
2023/01/02 05:58:59;;;;;;;;;;;9.60;99.90;;;;;;4841761;29;19924;-72
2023/01/02 06:01:26;;;;;;;;;;;9.60;99.90;;;;;;4839329;29;19924;-72
2023/01/02 06:03:53;;;;;;;;;;;9.60;99.90;;;;;;4826882;29;19931;-72
2023/01/02 06:06:20;;;;;;;;;;;9.60;99.90;;;;;;4845211;29;19932;-72
2023/01/02 06:08:46;;;;;;;;;;;9.60;99.90;;;;;;4841648;29;19928;-72
2023/01/02 06:11:12;;;;;;;;;;;9.50;99.90;;;;;;4841754;29;19928;-71
2023/01/02 06:13:38;;;;;;;;;;;9.30;99.90;;;;;;4846782;29;19924;-71
2023/01/02 06:16:04;;;;;;;;;;;9.20;99.90;;;;;;4844298;29;19928;-72
2023/01/02 06:18:31;;;;;;;;;;;9.00;99.90;;;;;;4845464;29;20373;-72
2023/01/02 06:20:58;;;;;;;;;;;8.80;99.90;;;;;;4838654;29;20394;-72
2023/01/02 06:23:24;;;;;;;;;;;8.60;99.90;;;;;;4838996;29;19924;-72
2023/01/02 06:25:49;;;;;;;;;;;8.40;99.90;;;;;;4834762;29;19931;-72
2023/01/02 06:28:15;;;;;;;;;;;8.20;99.90;;;;;;4829485;29;19924;-71
2023/01/02 06:30:41;;;;;;;;;;;8.10;99.90;;;;;;4844290;29;20190;-71
2023/01/02 06:33:06;;;;;;;;;;;7.90;99.90;;;;;;4839944;29;19980;-71
2023/01/02 06:35:32;;;;;;;;;;;7.90;99.90;;;;;;4838244;29;20388;-71
2023/01/02 06:37:57;;;;;;;;;;;7.80;99.90;;;;;;4842385;29;20111;-71
2023/01/02 06:40:23;;;;;;;;;;;7.80;99.90;;;;;;4846314;29;19931;-72
2023/01/02 06:42:48;;;;;;;;;;;7.70;99.90;;;;;;4841066;29;19936;-72
2023/01/02 06:45:14;;;;;;;;;;;7.70;99.90;;;;;;4847627;29;19923;-71
2023/01/02 06:47:40;;;;;;;;;;;7.60;99.90;;;;;;4839367;29;20054;-71
2023/01/02 06:50:05;;;;;;;;;;;7.50;99.90;;;;;;4830020;29;19924;-71
2023/01/02 06:52:31;;;;;;;;;;;7.50;99.90;;;;;;4840899;29;19939;-72
2023/01/02 06:54:56;;;;;;;;;;;7.50;99.90;;;;;;4859753;29;19924;-72
2023/01/02 06:57:22;;;;;;;;;;;7.50;99.90;;;;;;4858319;29;19932;-72
2023/01/02 06:59:48;;;;;;;;;;;7.40;99.90;;;;;;4847307;29;19978;-72
2023/01/02 07:02:13;;;;;;;;;;;7.40;99.90;;;;;;4843064;29;20344;-72
2023/01/02 07:04:39;;;;;;;;;;;7.30;99.90;;;;;;4847042;29;19928;-72
2023/01/02 07:07:05;;;;;;;;;;;7.30;99.90;;;;;;4841577;29;19932;-72
2023/01/02 07:09:31;;;;;;;;;;;7.30;99.90;;;;;;4823129;29;19924;-72
2023/01/02 07:11:59;;;;;;;;;;;7.30;99.90;;;;;;4840397;29;19928;-72
2023/01/02 07:14:25;;;;;;;;;;;7.30;99.90;;;;;;4843475;29;19924;-72
2023/01/02 07:16:51;;;;;;;;;;;7.20;99.90;;;;;;4831190;29;19931;-72
2023/01/02 07:19:16;;;;;;;;;;;7.30;99.90;;;;;;4843406;29;19932;-72
2023/01/02 07:21:42;;;;;;;;;;;7.20;99.90;;;;;;4825903;29;20365;-72
2023/01/02 07:24:12;;;;;;;;;;;7.20;99.90;;;;;;4843498;29;19924;-71
2023/01/02 07:26:37;;;;;;;;;;;7.20;99.90;;;;;;4834753;29;19959;-71
2023/01/02 07:29:03;;;;;;;;;;;7.20;99.90;;;;;;4822728;29;20329;-72
2023/01/02 07:31:29;;;;;;;;;;;7.20;99.90;;;;;;4833489;29;19932;-72
2023/01/02 07:33:54;;;;;;;;;;;7.20;99.90;;;;;;4845035;29;19924;-71
2023/01/02 07:36:21;;;;;;;;;;;7.20;99.90;;;;;;4841355;29;19929;-72
2023/01/02 07:38:50;;;;;;;;;;;7.20;99.90;;;;;;4847480;29;19963;-71
2023/01/02 07:41:17;;;;;;;;;;;7.10;99.90;;;;;;4841332;29;19963;-72
2023/01/02 07:43:43;;;;;;;;;;;7.10;99.90;;;;;;4842943;29;19934;-72
2023/01/02 07:46:09;;;;;;;;;;;7.10;99.90;;;;;;4840889;29;20368;-72
2023/01/02 07:48:35;;;;;;;;;;;7.10;99.90;;;;;;4829769;29;20139;-73
2023/01/02 07:51:01;;;;;;;;;;;7.10;99.90;;;;;;4837584;29;19929;-73
2023/01/02 07:53:27;;;;;;;;;;;7.10;99.90;;;;;;4837058;29;20451;-73
2023/01/02 07:55:53;;;;;;;;;;;7.10;99.90;;;;;;4840736;29;19967;-73
2023/01/02 07:58:19;;;;;;;;;;;7.10;99.90;;;;;;4844542;29;19924;-73
2023/01/02 08:00:44;;;;;;;;;;;7.10;99.90;;;;;;4860328;29;20484;-73
2023/01/02 08:03:10;;;;;;;;;;;7.10;99.90;;;;;;4844912;29;19924;-73
2023/01/02 08:05:37;;;;;;;;;;;7.10;99.90;;;;;;4849713;29;21268;-73
2023/01/02 08:08:03;;;;;;;;;;;7.10;99.90;;;;;;4828339;29;19924;-73
2023/01/02 08:10:28;;;;;;;;;;;7.10;99.90;;;;;;4828829;29;20159;-73
2023/01/02 08:12:56;;;;;;;;;;;7.00;99.90;;;;;;4853800;29;20363;-73
2023/01/02 08:15:22;;;;;;;;;;;7.00;99.90;;;;;;4843421;29;20148;-73
2023/01/02 08:17:47;;;;;;;;;;;7.00;99.90;;;;;;4842519;29;19939;-72
2023/01/02 08:20:13;;;;;;;;;;;7.00;99.90;;;;;;4845871;29;19928;-72
2023/01/02 08:22:38;;;;;;;;;;;7.10;99.90;;;;;;4842214;29;19984;-72
2023/01/02 08:25:04;;;;;;;;;;;7.10;99.90;;;;;;4844560;29;19923;-72
2023/01/02 08:27:30;;;;;;;;;;;7.10;99.90;;;;;;4845021;29;20419;-72
2023/01/02 08:29:55;;;;;;;;;;;7.10;99.90;;;;;;4841181;29;20010;-72
2023/01/02 08:32:22;;;;;;;;;;;7.10;99.90;;;;;;4838796;29;19932;-72
2023/01/02 08:34:48;;;;;;;;;;;7.10;99.90;;;;;;4838910;29;19963;-72
2023/01/02 08:37:14;;;;;;;;;;;7.10;99.90;;;;;;4845426;29;20291;-72
2023/01/02 08:39:39;;;;;;;;;;;7.10;99.90;;;;;;4846093;29;20431;-72
2023/01/02 08:42:06;;;;;;;;;;;7.10;99.90;;;;;;4839111;29;19941;-72
2023/01/02 08:44:33;;;;;;;;;;;7.10;99.90;;;;;;4847031;29;19925;-72
2023/01/02 08:46:58;;;;;;;;;;;7.10;99.90;;;;;;4861030;29;20449;-73
2023/01/02 08:49:24;;;;;;;;;;;7.10;99.90;;;;;;4843596;29;19968;-72
2023/01/02 08:51:49;;;;;;;;;;;7.10;99.90;;;;;;4823546;29;20413;-72
2023/01/02 08:54:15;;;;;;;;;;;7.20;99.90;;;;;;4822185;29;19973;-72
2023/01/02 08:56:41;;;;;;;;;;;7.20;99.90;;;;;;4842630;29;19929;-72
2023/01/02 08:59:08;;;;;;;;;;;7.20;99.90;;;;;;4845754;29;20373;-72
2023/01/02 09:01:34;;;;;;;;;;;7.20;99.90;;;;;;4842833;29;19939;-72
2023/01/02 09:04:00;;;;;;;;;;;7.30;99.90;;;;;;4829312;29;19935;-72
2023/01/02 09:06:26;;;;;;;;;;;7.30;99.90;;;;;;4840339;29;19931;-72
2023/01/02 09:08:54;;;;;;;;;;;7.30;99.90;;;;;;4842490;29;19939;-72
2023/01/02 09:11:24;;;;;;;;;;;7.30;99.90;;;;;;4856188;29;19931;-73
2023/01/02 09:13:50;;;;;;;;;;;7.30;99.90;;;;;;4841522;29;20408;-72
2023/01/02 09:16:15;;;;;;;;;;;7.30;99.90;;;;;;4845075;29;19924;-72
2023/01/02 09:18:47;;;;;;;;;;;7.30;99.90;;;;;;4840055;29;20465;-72
2023/01/02 09:21:12;;;;;;;;;;;7.40;99.90;;;;;;4834732;29;19925;-73
2023/01/02 09:23:38;;;;;;;;;;;7.40;99.90;;;;;;4824782;29;19924;-72
2023/01/02 09:26:09;;;;;;;;;;;7.40;99.90;;;;;;4826915;29;19928;-72
2023/01/02 09:28:35;;;;;;;;;;;7.40;99.90;;;;;;4838715;29;19935;-72
2023/01/02 09:31:05;;;;;;;;;;;7.40;99.90;;;;;;4844066;29;20035;-72
2023/01/02 09:33:30;;;;;;;;;;;7.40;99.90;;;;;;4841399;29;19935;-72
2023/01/02 09:35:59;;;;;;;;;;;7.40;99.90;;;;;;4831840;29;19928;-70
2023/01/02 09:38:25;;;;;;;;;;;7.40;99.90;;;;;;4837620;29;20403;-70
2023/01/02 09:40:52;;;;;;;;;;;7.50;99.90;;;;;;4844768;29;19924;-70
2023/01/02 09:43:34;;;;;;;;;;;7.50;99.90;;;;;;4839294;29;20273;-70
2023/01/02 09:46:01;;;;;;;;;;;7.50;99.90;;;;;;4834652;29;19935;-70
2023/01/02 09:48:30;;;;;;;;;;;7.60;99.90;;;;;;4834327;29;20019;-70
2023/01/02 09:50:56;;;;;;;;;;;7.60;99.90;;;;;;4835696;29;19930;-70
2023/01/02 09:53:22;;;;;;;;;;;7.60;99.90;;;;;;4839423;29;19939;-70
2023/01/02 09:55:54;;;;;;;;;;;7.70;99.90;;;;;;4828025;29;20437;-70
2023/01/02 09:58:38;;;;;;;;;;;7.70;99.90;;;;;;4830314;29;20061;-70
2023/01/02 10:01:06;;;;;;;;;;;7.70;99.90;;;;;;4864662;29;19935;-70
2023/01/02 10:03:39;;;;;;;;;;;7.70;99.90;;;;;;4847352;29;20397;-70
2023/01/02 10:06:15;;;;;;;;;;;7.60;99.90;;;;;;4844588;29;19932;-70
2023/01/02 10:08:59;;;;;;;;;;;7.60;99.90;;;;;;4855728;29;19963;-70
2023/01/02 10:11:30;;;;;;;;;;;7.60;99.90;;;;;;4837427;29;19933;-70
2023/01/02 10:14:04;;;;;;;;;;;7.50;99.90;;;;;;4843458;29;19932;-70
2023/01/02 10:16:32;;;;;;;;;;;7.50;99.90;;;;;;4838677;29;19924;-70
2023/01/02 10:18:59;;;;;;;;;;;7.50;99.90;;;;;;4832557;29;19927;-70
2023/01/02 10:21:30;;;;;;;;;;;7.50;99.90;;;;;;4830319;29;20402;-70
2023/01/02 10:24:08;;;;;;;;;;;7.50;99.90;;;;;;4850902;29;19939;-68
2023/01/02 10:26:40;;;;;;;;;;;7.50;99.90;;;;;;4831439;29;19928;-68
2023/01/02 10:29:05;;;;;;;;;;;7.40;99.90;;;;;;4821523;29;20302;-69
2023/01/02 10:31:35;;;;;;;;;;;7.40;99.90;;;;;;4837532;29;19928;-69
2023/01/02 10:34:02;;;;;;;;;;;7.40;99.90;;;;;;4837185;29;19972;-68
2023/01/02 10:36:29;;;;;;;;;;;7.30;99.90;;;;;;4842193;29;20532;-69
2023/01/02 10:38:59;;;;;;;;;;;7.30;99.90;;;;;;4835960;29;19935;-68
2023/01/02 10:41:26;;;;;;;;;;;7.30;99.90;;;;;;4832671;29;19939;-69
2023/01/02 10:43:57;;;;;;;;;;;7.30;99.90;;;;;;4851382;29;19968;-68
2023/01/02 10:46:24;;;;;;;;;;;7.30;99.90;;;;;;4841611;29;20040;-68
2023/01/02 10:48:50;;;;;;;;;;;7.30;99.90;;;;;;4837955;29;19932;-69
2023/01/02 10:51:16;;;;;;;;;;;7.20;99.90;;;;;;4832184;29;19932;-69
2023/01/02 10:53:42;;;;;;;;;;;7.20;99.90;;;;;;4835077;29;19969;-68
2023/01/02 10:56:18;;;;;;;;;;;7.10;99.90;;;;;;4834364;29;19954;-68
2023/01/02 10:58:46;;;;;;;;;;;7.10;99.90;;;;;;4821051;29;19931;-69
2023/01/02 11:01:12;;;;;;;;;;;7.10;99.90;;;;;;4836118;29;19935;-68
2023/01/02 11:03:38;;;;;;;;;;;7.20;99.90;;;;;;4855730;29;20279;-68
2023/01/02 11:06:16;;;;;;;;;;;7.20;99.90;;;;;;4848958;29;19948;-69
2023/01/02 11:08:41;;;;;;;;;;;7.10;99.90;;;;;;4830658;29;19929;-68
2023/01/02 11:11:14;;;;;;;;;;;7.10;99.90;;;;;;4824142;29;20503;-69
2023/01/02 11:13:44;;;;;;;;;;;7.20;99.90;;;;;;4823542;29;19978;-69
2023/01/02 11:16:11;;;;;;;;;;;7.30;99.90;;;;;;4844651;29;19928;-69
2023/01/02 11:18:36;;;;;;;;;;;7.40;99.90;;;;;;4824427;29;19928;-69
2023/01/02 11:21:06;;;;;;;;;;;7.50;99.90;;;;;;4838062;29;20030;-71
2023/01/02 11:23:40;;;;;;;;;;;7.60;99.90;;;;;;4841345;29;19924;-71
2023/01/02 11:26:11;;;;;;;;;;;7.60;99.90;;;;;;4830105;29;19932;-71
2023/01/02 11:28:38;;;;;;;;;;;7.70;99.90;;;;;;4815673;29;20039;-71
2023/01/02 11:31:04;;;;;;;;;;;7.70;99.90;;;;;;4835997;29;19948;-71
2023/01/02 11:33:37;;;;;;;;;;;7.80;99.90;;;;;;4840376;29;19980;-70
2023/01/02 11:36:02;;;;;;;;;;;7.80;99.90;;;;;;4837318;29;19932;-71
2023/01/02 11:38:40;;;;;;;;;;;7.80;99.90;;;;;;4831234;29;19972;-71
2023/01/02 11:41:18;;;;;;;;;;;7.90;99.90;;;;;;4833929;29;19932;-71
2023/01/02 11:43:50;;;;;;;;;;;7.90;99.90;;;;;;4840140;29;19930;-70
2023/01/02 11:46:30;;;;;;;;;;;7.90;99.90;;;;;;4834954;29;19924;-71
2023/01/02 11:48:58;;;;;;;;;;;8.00;99.90;;;;;;4835843;29;19980;-71
2023/01/02 11:51:24;;;;;;;;;;;7.90;99.90;;;;;;4839968;29;19924;-71
2023/01/02 11:53:51;;;;;;;;;;;7.90;99.90;;;;;;4837442;29;19928;-71
2023/01/02 11:56:26;;;;;;;;;;;8.00;99.90;;;;;;4824539;29;19928;-71
2023/01/02 11:59:03;;;;;;;;;;;8.00;99.90;;;;;;4852213;29;19962;-70
2023/01/02 12:01:29;;;;;;;;;;;8.10;99.90;;;;;;4860902;29;19932;-70
2023/01/02 12:03:55;;;;;;;;;;;8.00;99.90;;;;;;4841931;29;20583;-70
2023/01/02 12:06:22;;;;;;;;;;;8.00;99.90;;;;;;4821978;29;20020;-70
2023/01/02 12:08:51;;;;;;;;;;;8.10;99.90;;;;;;4841203;29;19950;-71
2023/01/02 12:11:35;;;;;;;;;;;8.10;99.90;;;;;;4829438;29;19972;-71
2023/01/02 12:14:09;;;;;;;;;;;8.10;99.90;;;;;;4838036;29;19935;-71
2023/01/02 12:16:53;;;;;;;;;;;8.10;99.90;;;;;;4815396;29;19939;-70
2023/01/02 12:19:22;;;;;;;;;;;8.10;99.90;;;;;;4848865;29;19936;-70
2023/01/02 12:21:51;;;;;;;;;;;8.20;99.90;;;;;;4838025;29;19928;-71
2023/01/02 12:24:25;;;;;;;;;;;8.20;99.90;;;;;;4841628;29;19940;-71
2023/01/02 12:26:54;;;;;;;;;;;8.20;99.90;;;;;;4846719;29;19928;-70
2023/01/02 12:29:30;;;;;;;;;;;8.30;99.90;;;;;;4836911;29;19992;-71
2023/01/02 12:32:14;;;;;;;;;;;8.30;99.90;;;;;;4841098;29;20011;-70
2023/01/02 12:35:01;;;;;;;;;;;8.30;99.90;;;;;;4837534;29;20084;-70
2023/01/02 12:37:45;;;;;;;;;;;8.30;99.90;;;;;;4853768;29;19961;-71
2023/01/02 12:40:20;;;;;;;;;;;8.30;99.90;;;;;;4836243;29;19928;-71
2023/01/02 12:42:52;;;;;;;;;;;8.30;99.90;;;;;;4856797;29;20365;-71
2023/01/02 12:45:36;;;;;;;;;;;8.30;99.90;;;;;;4832833;29;19931;-71
2023/01/02 12:48:04;;;;;;;;;;;8.30;99.90;;;;;;4820312;29;19925;-71
2023/01/02 12:50:53;;;;;;;;;;;8.40;99.90;;;;;;4834699;29;19924;-71
2023/01/02 12:53:33;;;;;;;;;;;8.40;99.90;;;;;;4835669;29;19932;-71
2023/01/02 12:56:20;;;;;;;;;;;8.30;99.90;;;;;;4839639;29;19925;-71
2023/01/02 12:58:45;;;;;;;;;;;8.30;99.90;;;;;;4850699;29;20433;-71
2023/01/02 13:01:14;;;;;;;;;;;8.30;99.90;;;;;;4816344;29;19924;-71
2023/01/02 13:04:02;;;;;;;;;;;8.30;99.90;;;;;;4856256;29;20347;-71
2023/01/02 13:06:28;;;;;;;;;;;8.30;99.90;;;;;;4853195;29;19932;-71
2023/01/02 13:09:26;;;;;;;;;;;8.20;99.90;;;;;;4839320;29;19992;-71
2023/01/02 13:11:57;;;;;;;;;;;8.20;99.90;;;;;;4789938;29;19925;-70
2023/01/02 13:14:25;;;;;;;;;;;8.30;99.90;;;;;;4836776;29;20015;-70
2023/01/02 13:16:56;;;;;;;;;;;8.30;99.90;;;;;;4851372;29;19974;-70
2023/01/02 13:19:22;;;;;;;;;;;8.30;99.90;;;;;;4834163;29;20289;-71
2023/01/02 13:21:53;;;;;;;;;;;8.30;99.90;;;;;;4836366;29;19980;-71
2023/01/02 13:24:21;;;;;;;;;;;8.30;99.90;;;;;;4850259;29;19952;-71
2023/01/02 13:26:47;;;;;;;;;;;8.30;99.90;;;;;;4837151;29;19947;-71
2023/01/02 13:29:13;;;;;;;;;;;8.30;99.90;;;;;;4837854;29;19928;-71
2023/01/02 13:31:40;;;;;;;;;;;8.30;99.90;;;;;;4840791;29;19945;-70
2023/01/02 13:34:12;;;;;;;;;;;8.20;99.90;;;;;;4839441;29;19932;-71
2023/01/02 13:36:39;;;;;;;;;;;8.20;99.90;;;;;;4829921;29;19929;-70
2023/01/02 13:39:14;;;;;;;;;;;8.20;99.90;;;;;;4840170;29;19975;-71
2023/01/02 13:42:57;;;;;;;;;;;8.10;99.90;;;;;;4836067;29;19963;-71
2023/01/02 13:44:33;;;;;;;;;;;8.00;99.90;;;;;;4837302;29;20018;-71
2023/01/02 13:47:06;;;;;;;;;;;8.00;99.90;;;;;;4844008;29;19935;-70
2023/01/02 13:49:33;;;;;;;;;;;8.00;99.90;;;;;;4821257;29;19928;-70
2023/01/02 13:51:58;;;;;;;;;;;7.90;99.90;;;;;;4839982;29;20341;-70
2023/01/02 13:54:33;;;;;;;;;;;7.90;99.90;;;;;;4830855;29;19936;-70
2023/01/02 13:57:14;;;;;;;;;;;8.00;99.90;;;;;;4843161;29;19932;-70
2023/01/02 13:59:49;;;;;;;;;;;8.00;99.90;;;;;;4841968;29;19947;-70
2023/01/02 14:02:18;;;;;;;;;;;8.00;99.90;;;;;;4836524;29;19928;-70
2023/01/02 14:04:44;;;;;;;;;;;8.00;99.90;;;;;;4840448;29;19935;-70
2023/01/02 14:07:25;;;;;;;;;;;8.00;99.90;;;;;;4840661;29;19928;-70
2023/01/02 14:10:00;;;;;;;;;;;8.00;99.90;;;;;;4830642;29;20744;-71
2023/01/02 14:12:26;;;;;;;;;;;7.90;99.90;;;;;;4852384;29;20455;-71
2023/01/02 14:14:52;;;;;;;;;;;7.90;99.90;;;;;;4838376;29;20015;-71
2023/01/02 14:17:21;;;;;;;;;;;7.90;99.90;;;;;;4835451;29;19972;-71
2023/01/02 14:19:46;;;;;;;;;;;7.90;99.90;;;;;;4836742;29;20373;-70
2023/01/02 14:22:14;;;;;;;;;;;7.90;99.90;;;;;;4836406;29;19924;-70
2023/01/02 14:24:41;;;;;;;;;;;7.80;99.90;;;;;;4833879;29;19932;-70
2023/01/02 14:27:22;;;;;;;;;;;7.80;99.90;;;;;;4840143;29;20296;-70
2023/01/02 14:29:53;;;;;;;;;;;7.80;99.90;;;;;;4837963;29;19936;-70
2023/01/02 14:32:21;;;;;;;;;;;7.70;99.90;;;;;;4839359;29;20432;-70
2023/01/02 14:34:49;;;;;;;;;;;7.70;99.90;;;;;;4839556;29;19928;-71
2023/01/02 14:37:31;;;;;;;;;;;7.70;99.90;;;;;;4822949;29;19933;-71
2023/01/02 14:40:08;;;;;;;;;;;7.70;99.90;;;;;;4839041;29;20461;-70
2023/01/02 14:45:19;;;;;;;;;;;7.60;99.90;;;;;;4836166;29;19933;-70